createdAt,value
2022-10-27T00:00:33.441Z,86.69
2022-10-27T00:03:00.148Z,86.24
2022-10-27T00:05:26.659Z,86.92
2022-10-27T00:07:53.267Z,86.48
2022-10-27T00:10:20.021Z,86.65
2022-10-27T00:12:46.616Z,86.84
2022-10-27T00:15:13.969Z,86.92
2022-10-27T00:17:40.446Z,87.12
2022-10-27T00:20:07.853Z,87.27
2022-10-27T00:22:34.692Z,87.58
2022-10-27T00:25:01.175Z,88.10
2022-10-27T00:27:28.397Z,88.17
2022-10-27T00:29:55.450Z,87.77
2022-10-27T00:32:21.916Z,88.46
2022-10-27T00:34:48.317Z,88.55
2022-10-27T00:37:14.772Z,88.54
2022-10-27T00:39:41.187Z,88.52
2022-10-27T00:42:11.987Z,88.11
2022-10-27T00:44:43.733Z,88.60
2022-10-27T00:47:10.103Z,89.08
2022-10-27T00:49:45.988Z,89.22
2022-10-27T00:52:20.891Z,89.35
2022-10-27T00:54:47.544Z,89.66
2022-10-27T00:57:14.238Z,89.87
2022-10-27T00:59:41.666Z,89.77
2022-10-27T01:02:10.164Z,89.48
2022-10-27T01:04:46.585Z,90.09
2022-10-27T01:07:16.061Z,90.07
2022-10-27T01:09:43.672Z,90.11
2022-10-27T01:12:10.179Z,90.30
2022-10-27T01:14:37.340Z,90.00
2022-10-27T01:17:14.278Z,89.79
2022-10-27T01:20:18.226Z,89.52
2022-10-27T01:22:59.455Z,89.92
2022-10-27T01:25:43.248Z,89.23
2022-10-27T01:28:43.037Z,89.53
2022-10-27T01:31:11.557Z,89.37
2022-10-27T01:33:49.680Z,90.19
2022-10-27T01:36:24.279Z,89.95
2022-10-27T01:39:16.115Z,89.82
2022-10-27T01:41:57.876Z,90.28
2022-10-27T01:44:40.979Z,90.34
2022-10-27T01:47:10.224Z,90.05
2022-10-27T01:49:38.191Z,90.39
2022-10-27T01:52:28.706Z,90.18
2022-10-27T01:54:57.749Z,90.43
2022-10-27T01:57:36.596Z,89.86
2022-10-27T02:00:06.380Z,90.46
2022-10-27T02:03:04.289Z,90.08
2022-10-27T02:06:10.347Z,90.40
2022-10-27T02:08:51.191Z,90.09
2022-10-27T02:11:17.660Z,90.38
2022-10-27T02:13:46.543Z,90.57
2022-10-27T02:16:23.072Z,90.52
2022-10-27T02:18:54.600Z,90.75
2022-10-27T02:21:21.680Z,91.44
2022-10-27T02:23:48.222Z,91.07
2022-10-27T02:26:33.198Z,91.01
2022-10-27T02:29:03.696Z,90.91
2022-10-27T02:31:41.527Z,91.57
2022-10-27T02:34:09.267Z,91.41
2022-10-27T02:36:35.878Z,91.21
2022-10-27T02:39:02.489Z,91.71
2022-10-27T02:41:29.010Z,91.79
2022-10-27T02:43:55.434Z,91.90
2022-10-27T02:46:21.830Z,91.65
2022-10-27T02:48:48.290Z,91.73
2022-10-27T02:51:14.691Z,92.01
2022-10-27T02:53:41.114Z,91.95
2022-10-27T02:56:07.767Z,91.55
2022-10-27T02:58:35.186Z,91.88
2022-10-27T03:01:01.775Z,91.15
2022-10-27T03:03:28.312Z,91.11
2022-10-27T03:05:54.737Z,91.12
2022-10-27T03:08:21.222Z,91.10
2022-10-27T03:10:47.655Z,90.63
2022-10-27T03:13:14.069Z,90.67
2022-10-27T03:15:40.548Z,91.00
2022-10-27T03:18:07.048Z,90.86
2022-10-27T03:20:33.486Z,90.42
2022-10-27T03:22:59.921Z,90.20
2022-10-27T03:25:26.359Z,90.31
2022-10-27T03:27:52.833Z,90.28
2022-10-27T03:30:19.669Z,89.91
2022-10-27T03:32:48.645Z,90.07
2022-10-27T03:35:17.041Z,90.01
2022-10-27T03:37:44.099Z,89.96
2022-10-27T03:40:11.647Z,90.02
2022-10-27T03:42:42.444Z,90.42
2022-10-27T03:45:12.169Z,89.98
2022-10-27T03:47:38.887Z,90.22
2022-10-27T03:50:05.820Z,90.17
2022-10-27T03:52:33.329Z,89.70
2022-10-27T03:55:00.316Z,90.37
2022-10-27T03:57:26.856Z,89.99
2022-10-27T03:59:53.327Z,90.01
2022-10-27T04:02:19.787Z,90.29
2022-10-27T04:04:46.267Z,90.06
2022-10-27T04:07:12.666Z,90.15
2022-10-27T04:09:39.094Z,89.91
2022-10-27T04:12:05.709Z,90.28
2022-10-27T04:14:32.157Z,90.16
2022-10-27T04:16:58.593Z,90.01
2022-10-27T04:19:25.075Z,90.32
2022-10-27T04:21:51.555Z,90.28
2022-10-27T04:24:17.945Z,89.95
2022-10-27T04:26:44.390Z,90.13
2022-10-27T04:29:10.802Z,90.04
2022-10-27T04:31:37.259Z,90.09
2022-10-27T04:34:03.682Z,89.99
2022-10-27T04:36:30.188Z,90.09
2022-10-27T04:38:56.725Z,90.60
2022-10-27T04:41:23.232Z,90.52
2022-10-27T04:43:52.866Z,90.45
2022-10-27T04:46:19.319Z,90.43
2022-10-27T04:48:45.746Z,90.76
2022-10-27T04:51:12.180Z,90.54
2022-10-27T04:53:38.616Z,90.63
2022-10-27T04:56:05.461Z,90.68
2022-10-27T04:58:32.255Z,90.59
2022-10-27T05:00:58.732Z,90.75
2022-10-27T05:03:25.120Z,90.69
2022-10-27T05:05:51.604Z,90.08
2022-10-27T05:08:17.998Z,90.69
2022-10-27T05:10:45.245Z,90.36
2022-10-27T05:13:11.672Z,90.74
2022-10-27T05:15:38.126Z,90.31
2022-10-27T05:18:06.849Z,90.81
2022-10-27T05:20:35.925Z,90.47
2022-10-27T05:23:02.325Z,90.60
2022-10-27T05:25:29.008Z,90.57
2022-10-27T05:28:06.055Z,90.90
2022-10-27T05:30:32.528Z,90.74
2022-10-27T05:32:58.961Z,90.87
2022-10-27T05:35:25.488Z,91.08
2022-10-27T05:37:52.208Z,91.00
2022-10-27T05:40:19.065Z,90.93
2022-10-27T05:42:50.257Z,90.65
2022-10-27T05:45:16.841Z,91.05
2022-10-27T05:47:43.255Z,90.20
2022-10-27T05:50:09.992Z,90.68
2022-10-27T05:52:36.440Z,90.24
2022-10-27T05:55:03.272Z,90.01
2022-10-27T05:57:29.705Z,90.27
2022-10-27T05:59:56.176Z,90.28
2022-10-27T06:02:22.683Z,90.18
2022-10-27T06:04:49.156Z,89.93
2022-10-27T06:07:15.641Z,90.04
2022-10-27T06:09:42.169Z,90.04
2022-10-27T06:12:08.596Z,89.72
2022-10-27T06:14:35.015Z,89.83
2022-10-27T06:17:01.430Z,89.67
2022-10-27T06:19:27.844Z,89.33
2022-10-27T06:21:54.265Z,89.38
2022-10-27T06:24:20.765Z,89.12
2022-10-27T06:26:47.214Z,89.60
2022-10-27T06:29:13.646Z,89.17
2022-10-27T06:31:40.232Z,89.23
2022-10-27T06:34:06.642Z,89.30
2022-10-27T06:36:33.131Z,89.23
2022-10-27T06:38:59.816Z,89.22
2022-10-27T06:41:26.306Z,88.65
2022-10-27T06:43:52.790Z,88.84
2022-10-27T06:46:19.698Z,88.47
2022-10-27T06:48:46.123Z,88.57
2022-10-27T06:51:12.544Z,88.45
2022-10-27T06:53:38.915Z,88.32
2022-10-27T06:56:05.519Z,88.58
2022-10-27T06:58:31.944Z,88.40
2022-10-27T07:01:00.097Z,88.27
2022-10-27T07:03:26.515Z,88.04
2022-10-27T07:05:52.944Z,88.20
2022-10-27T07:08:19.363Z,88.04
2022-10-27T07:10:45.951Z,87.67
2022-10-27T07:13:12.367Z,88.16
2022-10-27T07:15:38.802Z,87.71
2022-10-27T07:18:07.469Z,87.96
2022-10-27T07:20:35.680Z,88.01
2022-10-27T07:23:03.230Z,87.52
2022-10-27T07:25:31.638Z,87.50
2022-10-27T07:27:58.393Z,87.61
2022-10-27T07:30:28.594Z,87.18
2022-10-27T07:32:55.933Z,87.32
2022-10-27T07:35:22.873Z,87.13
2022-10-27T07:37:49.999Z,87.10
2022-10-27T07:40:18.763Z,87.27
2022-10-27T07:42:51.024Z,86.79
2022-10-27T07:45:20.700Z,86.85
2022-10-27T07:47:49.844Z,86.87
2022-10-27T07:50:17.945Z,87.04
2022-10-27T07:52:52.317Z,87.07
2022-10-27T07:55:22.788Z,87.17
2022-10-27T07:57:58.602Z,87.17
2022-10-27T08:00:25.262Z,86.99
2022-10-27T08:02:51.902Z,87.24
2022-10-27T08:05:18.706Z,87.14
2022-10-27T08:07:45.195Z,87.23
2022-10-27T08:10:11.867Z,86.88
2022-10-27T08:12:45.001Z,87.23
2022-10-27T08:15:12.209Z,86.99
2022-10-27T08:17:39.962Z,86.94
2022-10-27T08:20:08.672Z,86.72
2022-10-27T08:22:35.342Z,86.74
2022-10-27T08:25:04.729Z,87.45
2022-10-27T08:27:33.947Z,87.15
2022-10-27T08:30:00.407Z,87.01
2022-10-27T08:32:27.234Z,87.09
2022-10-27T08:34:53.697Z,87.33
2022-10-27T08:37:20.297Z,87.29
2022-10-27T08:39:46.711Z,87.42
2022-10-27T08:42:30.771Z,87.37
2022-10-27T08:45:05.333Z,87.61
2022-10-27T08:47:31.841Z,87.66
2022-10-27T08:50:14.256Z,88.22
2022-10-27T08:52:52.906Z,88.13
2022-10-27T08:55:27.030Z,88.38
2022-10-27T08:58:09.784Z,88.21
2022-10-27T09:00:50.068Z,88.65
2022-10-27T09:03:25.432Z,88.55
2022-10-27T09:06:06.121Z,88.47
2022-10-27T09:09:07.387Z,88.60
2022-10-27T09:11:58.996Z,88.57
2022-10-27T09:14:49.776Z,88.85
2022-10-27T09:17:25.647Z,88.60
2022-10-27T09:20:30.896Z,89.03
2022-10-27T09:23:00.050Z,88.76
2022-10-27T09:25:27.462Z,88.56
2022-10-27T09:27:55.910Z,88.75
2022-10-27T09:30:22.778Z,88.66
2022-10-27T09:32:51.521Z,88.50
2022-10-27T09:35:23.501Z,88.74
2022-10-27T09:37:51.132Z,88.20
2022-10-27T09:40:20.745Z,88.33
2022-10-27T09:42:50.782Z,88.66
2022-10-27T09:45:20.676Z,88.31
2022-10-27T09:47:51.283Z,88.09
2022-10-27T09:50:22.881Z,88.47
2022-10-27T09:52:50.246Z,88.08
2022-10-27T09:55:18.187Z,87.79
2022-10-27T09:57:47.701Z,87.42
2022-10-27T10:00:17.117Z,87.26
2022-10-27T10:05:36.784Z,87.11
2022-10-27T10:08:21.947Z,86.66
2022-10-27T10:11:31.469Z,86.89
2022-10-27T10:14:00.468Z,87.25
2022-10-27T10:16:28.854Z,87.26
2022-10-27T10:19:07.453Z,87.00
2022-10-27T10:21:46.993Z,87.07
2022-10-27T10:24:18.607Z,87.02
2022-10-27T10:26:47.930Z,85.86
2022-10-27T10:29:21.475Z,85.38
2022-10-27T10:31:47.938Z,85.52
2022-10-27T10:34:32.032Z,84.95
2022-10-27T10:36:58.842Z,84.32
2022-10-27T10:39:34.781Z,83.52
2022-10-27T10:42:10.084Z,82.44
2022-10-27T10:44:37.926Z,82.82
2022-10-27T10:47:06.222Z,83.01
2022-10-27T10:49:37.277Z,81.70
2022-10-27T10:52:15.524Z,81.93
2022-10-27T10:54:43.025Z,81.21
2022-10-27T10:57:46.643Z,80.25
2022-10-27T11:00:18.587Z,80.57
2022-10-27T11:03:00.278Z,80.32
2022-10-27T11:05:35.194Z,79.26
2022-10-27T11:08:04.125Z,78.82
2022-10-27T11:10:37.578Z,78.90
2022-10-27T11:13:19.400Z,78.86
2022-10-27T11:15:54.554Z,78.31
2022-10-27T11:18:20.946Z,77.76
2022-10-27T11:20:52.927Z,77.75
2022-10-27T11:23:38.365Z,78.10
2022-10-27T11:26:05.577Z,78.05
2022-10-27T11:28:53.443Z,77.59
2022-10-27T11:31:46.185Z,77.75
2022-10-27T11:34:26.396Z,77.48
2022-10-27T11:37:23.313Z,76.31
2022-10-27T11:39:59.175Z,76.98
2022-10-27T11:42:54.381Z,77.07
2022-10-27T11:45:28.592Z,76.07
2022-10-27T11:48:02.618Z,75.91
2022-10-27T11:50:40.658Z,75.54
2022-10-27T11:53:12.400Z,75.11
2022-10-27T11:56:03.235Z,75.86
2022-10-27T11:58:45.462Z,75.06
2022-10-27T12:01:14.665Z,74.90
2022-10-27T12:04:06.542Z,74.74
2022-10-27T12:06:42.558Z,73.95
2022-10-27T12:09:45.766Z,74.07
2022-10-27T12:12:24.778Z,73.08
2022-10-27T12:15:30.583Z,71.96
2022-10-27T12:18:12.595Z,72.72
2022-10-27T12:20:50.322Z,72.62
2022-10-27T12:23:24.662Z,72.15
2022-10-27T12:26:07.423Z,71.76
2022-10-27T12:28:35.794Z,72.43
2022-10-27T12:31:07.352Z,71.96
2022-10-27T12:33:40.910Z,71.06
2022-10-27T12:36:14.653Z,71.33
2022-10-27T12:39:27.824Z,70.14
2022-10-27T12:42:15.962Z,70.64
2022-10-27T12:44:48.084Z,71.38
2022-10-27T12:47:26.411Z,70.37
2022-10-27T12:50:11.170Z,70.40
2022-10-27T12:52:56.378Z,69.96
2022-10-27T12:55:32.711Z,69.84
2022-10-27T12:58:03.458Z,70.01
2022-10-27T13:00:59.860Z,70.64
2022-10-27T13:03:58.262Z,70.39
2022-10-27T13:06:43.455Z,70.54
2022-10-27T13:09:32.260Z,70.82
2022-10-27T13:12:20.722Z,71.06
2022-10-27T13:15:02.493Z,71.23
2022-10-27T13:17:58.706Z,71.22
2022-10-27T13:20:38.388Z,71.64
2022-10-27T13:23:22.973Z,71.96
2022-10-27T13:26:27.613Z,71.59
2022-10-27T13:29:34.121Z,72.30
2022-10-27T13:32:19.743Z,71.32
2022-10-27T13:35:01.171Z,71.12
2022-10-27T13:37:47.624Z,70.45
2022-10-27T13:40:20.110Z,70.31
2022-10-27T13:42:47.629Z,70.24
2022-10-27T13:45:29.335Z,69.61
2022-10-27T13:48:07.918Z,69.49
2022-10-27T13:50:36.478Z,68.75
2022-10-27T13:53:14.890Z,68.14
2022-10-27T13:55:51.791Z,67.47
2022-10-27T13:58:18.185Z,66.82
2022-10-27T14:01:30.054Z,65.07
2022-10-27T14:04:11.590Z,64.93
2022-10-27T14:06:41.399Z,64.91
2022-10-27T14:09:16.764Z,64.46
2022-10-27T14:11:47.855Z,64.05
2022-10-27T14:14:23.644Z,63.35
2022-10-27T14:16:50.710Z,64.06
2022-10-27T14:19:32.688Z,62.88
2022-10-27T14:21:59.667Z,63.77
2022-10-27T14:24:49.846Z,62.97
2022-10-27T14:27:18.690Z,63.93
2022-10-27T14:29:45.471Z,63.25
2022-10-27T14:32:19.147Z,63.38
2022-10-27T14:34:46.116Z,64.06
2022-10-27T14:37:17.806Z,64.19
2022-10-27T14:39:47.110Z,63.95
2022-10-27T14:42:22.178Z,63.54
2022-10-27T14:44:56.233Z,63.40
2022-10-27T14:47:23.962Z,63.26
2022-10-27T14:50:01.830Z,63.24
2022-10-27T14:52:50.414Z,62.73
2022-10-27T14:55:19.083Z,63.71
2022-10-27T14:57:50.066Z,63.95
2022-10-27T15:00:35.576Z,64.03
2022-10-27T15:03:08.164Z,64.31
2022-10-27T15:05:40.207Z,64.56
2022-10-27T15:08:14.372Z,64.56
2022-10-27T15:10:43.779Z,65.80
2022-10-27T15:13:20.009Z,65.97
2022-10-27T15:15:48.649Z,66.21
2022-10-27T15:18:23.018Z,66.06
2022-10-27T15:20:50.702Z,66.62
2022-10-27T15:23:18.107Z,66.60
2022-10-27T15:25:47.886Z,66.51
2022-10-27T15:28:15.889Z,66.95
2022-10-27T15:30:43.477Z,66.96
2022-10-27T15:33:30.460Z,67.43
2022-10-27T15:36:09.095Z,67.20
2022-10-27T15:38:35.871Z,67.64
2022-10-27T15:41:17.353Z,67.90
2022-10-27T15:43:50.009Z,67.80
2022-10-27T15:46:39.505Z,67.59
2022-10-27T15:49:28.465Z,67.93
2022-10-27T15:52:02.795Z,68.44
2022-10-27T15:54:37.330Z,68.45
2022-10-27T15:57:25.791Z,69.02
2022-10-27T16:00:18.920Z,68.99
2022-10-27T16:02:53.927Z,69.14
2022-10-27T16:05:29.719Z,69.94
2022-10-27T16:08:00.722Z,69.62
2022-10-27T16:10:28.034Z,70.21
2022-10-27T16:12:55.532Z,70.42
2022-10-27T16:15:24.823Z,70.24
2022-10-27T16:17:56.730Z,70.70
2022-10-27T16:20:26.059Z,70.82
2022-10-27T16:22:52.872Z,71.77
2022-10-27T16:25:23.840Z,71.12
2022-10-27T16:27:50.340Z,71.81
2022-10-27T16:30:19.852Z,72.23
2022-10-27T16:32:48.636Z,72.07
2022-10-27T16:35:17.105Z,72.61
2022-10-27T16:37:43.616Z,73.04
2022-10-27T16:40:14.762Z,72.76
2022-10-27T16:42:51.127Z,73.62
2022-10-27T16:45:20.430Z,73.44
2022-10-27T16:47:49.867Z,73.48
2022-10-27T16:50:16.998Z,73.83
2022-10-27T16:52:43.594Z,73.97
2022-10-27T16:55:11.941Z,74.14
2022-10-27T16:57:41.008Z,74.42
2022-10-27T17:00:12.240Z,74.56
2022-10-27T17:02:38.758Z,75.46
2022-10-27T17:05:06.376Z,75.12
2022-10-27T17:07:33.430Z,75.66
2022-10-27T17:09:59.818Z,76.11
2022-10-27T17:12:27.677Z,76.04
2022-10-27T17:14:54.102Z,76.33
2022-10-27T17:17:20.614Z,76.67
2022-10-27T17:19:47.208Z,76.41
2022-10-27T17:22:13.805Z,76.81
2022-10-27T17:24:40.247Z,77.24
2022-10-27T17:27:06.724Z,77.42
2022-10-27T17:29:33.136Z,77.41
2022-10-27T17:31:59.581Z,76.97
2022-10-27T17:34:25.961Z,77.73
2022-10-27T17:36:52.427Z,77.72
2022-10-27T17:39:18.813Z,77.42
2022-10-27T17:41:45.249Z,77.34
2022-10-27T17:44:11.741Z,77.53
2022-10-27T17:46:38.222Z,78.00
2022-10-27T17:49:04.654Z,77.81
2022-10-27T17:51:32.864Z,77.37
2022-10-27T17:54:00.782Z,77.40
2022-10-27T17:56:31.199Z,77.92
2022-10-27T17:58:58.403Z,77.71
2022-10-27T18:01:27.682Z,77.89
2022-10-27T18:03:55.947Z,78.03
2022-10-27T18:06:23.716Z,78.12
2022-10-27T18:08:53.750Z,77.99
2022-10-27T18:11:23.372Z,77.67
2022-10-27T18:13:51.417Z,78.34
2022-10-27T18:16:24.296Z,78.11
2022-10-27T18:18:53.055Z,78.31
2022-10-27T18:21:20.049Z,78.13
2022-10-27T18:23:50.927Z,78.83
2022-10-27T18:26:17.994Z,78.08
2022-10-27T18:28:45.813Z,78.92
2022-10-27T18:31:13.132Z,78.41
2022-10-27T18:33:40.497Z,78.42
2022-10-27T18:36:12.408Z,78.72
2022-10-27T18:38:39.080Z,78.75
2022-10-27T18:41:08.617Z,79.01
2022-10-27T18:43:35.148Z,78.99
2022-10-27T18:46:04.096Z,78.97
2022-10-27T18:48:30.831Z,79.07
2022-10-27T18:50:59.468Z,78.80
2022-10-27T18:53:26.559Z,79.25
2022-10-27T18:55:53.717Z,79.18
2022-10-27T18:58:20.179Z,79.34
2022-10-27T19:00:46.781Z,79.63
2022-10-27T19:03:13.279Z,79.66
2022-10-27T19:05:39.676Z,79.93
2022-10-27T19:08:06.153Z,79.97
2022-10-27T19:10:32.851Z,80.03
2022-10-27T19:12:59.477Z,80.24
2022-10-27T19:15:25.917Z,80.01
2022-10-27T19:17:53.160Z,80.93
2022-10-27T19:20:20.027Z,80.23
2022-10-27T19:22:46.483Z,80.64
2022-10-27T19:25:12.926Z,80.57
2022-10-27T19:27:39.438Z,80.83
2022-10-27T19:30:06.368Z,80.84
2022-10-27T19:32:34.705Z,80.93
2022-10-27T19:35:01.489Z,81.21
2022-10-27T19:37:27.968Z,81.80
2022-10-27T19:39:54.374Z,81.84
2022-10-27T19:42:20.940Z,81.82
2022-10-27T19:44:49.535Z,82.32
2022-10-27T19:47:16.038Z,81.75
2022-10-27T19:49:42.452Z,81.84
2022-10-27T19:52:08.961Z,81.64
2022-10-27T19:54:35.387Z,81.94
2022-10-27T19:57:01.800Z,82.13
2022-10-27T19:59:28.235Z,82.11
2022-10-27T20:01:54.834Z,82.20
2022-10-27T20:04:21.485Z,82.41
2022-10-27T20:06:48.508Z,82.19
2022-10-27T20:09:20.630Z,82.59
2022-10-27T20:11:47.820Z,82.23
2022-10-27T20:14:15.045Z,82.64
2022-10-27T20:16:43.895Z,82.50
2022-10-27T20:19:18.796Z,82.62
2022-10-27T20:21:45.836Z,82.61
2022-10-27T20:24:12.592Z,82.83
2022-10-27T20:26:40.812Z,82.57
2022-10-27T20:29:07.332Z,82.77
2022-10-27T20:31:34.078Z,82.94
2022-10-27T20:34:00.529Z,82.67
2022-10-27T20:36:26.970Z,82.78
2022-10-27T20:38:53.483Z,83.41
2022-10-27T20:41:21.948Z,83.27
2022-10-27T20:43:52.069Z,83.11
2022-10-27T20:46:18.512Z,83.03
2022-10-27T20:48:44.939Z,83.46
2022-10-27T20:51:12.834Z,83.49
2022-10-27T20:53:40.422Z,83.54
2022-10-27T20:56:12.178Z,83.18
2022-10-27T20:58:38.639Z,83.25
2022-10-27T21:01:28.727Z,83.16
2022-10-27T21:04:02.318Z,83.07
2022-10-27T21:06:30.690Z,83.10
2022-10-27T21:08:59.061Z,83.04
2022-10-27T21:11:27.177Z,83.57
2022-10-27T21:13:55.783Z,83.98
2022-10-27T21:16:23.414Z,84.24
2022-10-27T21:18:51.919Z,84.36
2022-10-27T21:21:19.573Z,84.55
2022-10-27T21:23:46.371Z,84.78
2022-10-27T21:26:13.447Z,85.16
2022-10-27T21:28:40.439Z,85.35
2022-10-27T21:31:12.364Z,85.37
2022-10-27T21:33:40.252Z,85.60
2022-10-27T21:36:07.800Z,85.79
2022-10-27T21:38:34.185Z,85.74
2022-10-27T21:41:00.816Z,85.84
2022-10-27T21:43:28.007Z,86.16
2022-10-27T21:45:56.126Z,85.89
2022-10-27T21:48:23.504Z,86.28
2022-10-27T21:50:51.420Z,86.24
2022-10-27T21:53:19.075Z,86.33
2022-10-27T21:56:06.543Z,86.47
2022-10-27T21:58:35.043Z,86.18
2022-10-27T22:01:07.430Z,86.69
2022-10-27T22:03:34.609Z,86.52
2022-10-27T22:06:01.035Z,86.52
2022-10-27T22:08:27.627Z,86.91
2022-10-27T22:10:54.176Z,86.93
2022-10-27T22:13:20.873Z,86.78
2022-10-27T22:15:47.340Z,86.84
2022-10-27T22:18:13.775Z,86.27
2022-10-27T22:20:40.278Z,86.37
2022-10-27T22:23:06.805Z,86.57
2022-10-27T22:25:33.265Z,86.58
2022-10-27T22:27:59.722Z,86.95
2022-10-27T22:30:26.140Z,86.37
2022-10-27T22:32:52.769Z,86.35
2022-10-27T22:35:19.343Z,86.62
2022-10-27T22:37:45.818Z,86.58
2022-10-27T22:40:12.452Z,86.13
2022-10-27T22:42:38.863Z,86.53
2022-10-27T22:45:05.547Z,86.51
2022-10-27T22:47:31.984Z,86.68
2022-10-27T22:49:58.392Z,86.31
2022-10-27T22:52:24.852Z,86.60
2022-10-27T22:54:51.248Z,86.72
2022-10-27T22:57:17.678Z,86.32
2022-10-27T22:59:44.165Z,86.81
2022-10-27T23:02:10.741Z,86.59
2022-10-27T23:04:37.257Z,86.81
2022-10-27T23:07:03.749Z,86.49
2022-10-27T23:09:30.185Z,86.58
2022-10-27T23:11:56.666Z,86.80
2022-10-27T23:14:23.121Z,86.58
2022-10-27T23:16:49.619Z,86.75
2022-10-27T23:19:16.171Z,86.87
2022-10-27T23:21:42.761Z,86.96
2022-10-27T23:24:09.401Z,86.93
2022-10-27T23:26:38.523Z,86.83
2022-10-27T23:29:07.800Z,87.11
2022-10-27T23:31:34.983Z,86.78
2022-10-27T23:34:03.626Z,86.91
2022-10-27T23:36:31.891Z,86.74
2022-10-27T23:38:58.898Z,87.09
2022-10-27T23:41:25.567Z,86.69
2022-10-27T23:43:54.476Z,86.63
2022-10-27T23:46:22.328Z,86.52
2022-10-27T23:48:48.859Z,86.45
2022-10-27T23:51:15.687Z,86.56
2022-10-27T23:53:42.267Z,86.54
2022-10-27T23:56:11.034Z,86.56
2022-10-27T23:58:41.531Z,86.31
